createdAt,value
2023-05-01T00:01:06.862Z,12.99
2023-05-01T00:04:10.244Z,13.16
2023-05-01T00:07:15.951Z,13.14
2023-05-01T00:10:20.834Z,13.10
2023-05-01T00:13:25.176Z,13.01
2023-05-01T00:16:28.433Z,12.92
2023-05-01T00:19:31.732Z,12.92
2023-05-01T00:22:35.126Z,12.96
2023-05-01T00:25:38.265Z,13.04
2023-05-01T00:28:41.406Z,13.10
2023-05-01T00:31:44.747Z,13.13
2023-05-01T00:34:49.152Z,13.10
2023-05-01T00:37:52.361Z,13.17
2023-05-01T00:40:55.618Z,13.26
2023-05-01T00:43:59.058Z,13.29
2023-05-01T00:47:03.093Z,13.39
2023-05-01T00:50:07.272Z,13.52
2023-05-01T00:53:10.469Z,13.40
2023-05-01T00:56:13.842Z,13.24
2023-05-01T00:59:16.980Z,13.18
2023-05-01T01:02:21.080Z,13.19
2023-05-01T01:05:28.008Z,13.26
2023-05-01T01:08:46.973Z,13.36
2023-05-01T01:11:56.442Z,13.59
2023-05-01T01:15:30.050Z,13.77
2023-05-01T01:18:54.120Z,13.89
2023-05-01T01:22:07.579Z,13.88
2023-05-01T01:25:28.781Z,13.84
2023-05-01T01:28:37.943Z,13.84
2023-05-01T01:32:02.520Z,13.89
2023-05-01T01:35:21.778Z,14.00
2023-05-01T01:38:37.116Z,14.21
2023-05-01T01:41:42.115Z,14.35
2023-05-01T01:44:58.909Z,14.46
2023-05-01T01:48:04.358Z,14.65
2023-05-01T01:51:14.007Z,14.88
2023-05-01T01:54:27.849Z,15.09
2023-05-01T01:57:32.349Z,15.24
2023-05-01T02:00:37.100Z,15.54
2023-05-01T02:03:41.640Z,15.72
2023-05-01T02:06:46.793Z,15.64
2023-05-01T02:09:52.438Z,15.51
2023-05-01T02:12:58.859Z,15.58
2023-05-01T02:16:04.755Z,15.77
2023-05-01T02:19:08.324Z,15.82
2023-05-01T02:22:12.888Z,16.13
2023-05-01T02:25:17.308Z,16.47
2023-05-01T02:28:24.219Z,16.85
2023-05-01T02:31:27.516Z,16.93
2023-05-01T02:34:30.804Z,16.87
2023-05-01T02:37:34.562Z,16.95
2023-05-01T02:40:40.614Z,17.09
2023-05-01T02:43:45.484Z,17.22
2023-05-01T02:46:50.470Z,17.30
2023-05-01T02:49:55.449Z,17.28
2023-05-01T02:53:00.121Z,17.36
2023-05-01T02:56:30.152Z,17.36
2023-05-01T02:59:34.276Z,17.21
2023-05-01T03:02:37.462Z,17.12
2023-05-01T03:05:41.737Z,17.08
2023-05-01T03:08:45.107Z,17.22
2023-05-01T03:11:48.705Z,17.06
2023-05-01T03:14:51.963Z,17.16
2023-05-01T03:17:55.204Z,17.31
2023-05-01T03:20:58.781Z,17.48
2023-05-01T03:24:03.842Z,17.27
2023-05-01T03:27:08.307Z,17.21
2023-05-01T03:30:12.257Z,17.40
2023-05-01T03:33:17.457Z,17.55
2023-05-01T03:36:20.778Z,17.85
2023-05-01T03:39:24.704Z,18.17
2023-05-01T03:42:50.582Z,18.29
2023-05-01T03:45:58.130Z,18.28
2023-05-01T03:49:01.975Z,18.30
2023-05-01T03:52:09.429Z,18.40
2023-05-01T03:55:12.832Z,18.79
2023-05-01T03:58:17.130Z,19.23
2023-05-01T04:01:20.776Z,19.13
2023-05-01T04:04:24.749Z,19.36
2023-05-01T04:07:32.388Z,19.61
2023-05-01T04:10:36.772Z,19.62
2023-05-01T04:13:41.161Z,19.56
2023-05-01T04:16:44.490Z,19.55
2023-05-01T04:19:48.661Z,19.74
2023-05-01T04:22:51.787Z,19.99
2023-05-01T04:25:55.110Z,19.99
2023-05-01T04:28:58.456Z,19.91
2023-05-01T04:32:05.406Z,19.94
2023-05-01T04:35:09.631Z,19.86
2023-05-01T04:38:14.116Z,19.86
2023-05-01T04:41:18.017Z,20.08
2023-05-01T04:44:22.242Z,20.22
2023-05-01T04:47:25.827Z,20.20
2023-05-01T04:50:29.047Z,20.24
2023-05-01T04:53:32.724Z,20.20
2023-05-01T04:56:36.500Z,20.34
2023-05-01T04:59:39.672Z,20.25
2023-05-01T05:02:43.176Z,20.27
2023-05-01T05:05:48.455Z,20.37
2023-05-01T05:08:52.721Z,20.47
2023-05-01T05:11:55.897Z,20.77
2023-05-01T05:14:59.593Z,20.80
2023-05-01T05:18:05.130Z,20.89
2023-05-01T05:21:09.664Z,20.96
2023-05-01T05:24:14.121Z,20.64
2023-05-01T05:27:17.276Z,20.37
2023-05-01T05:30:20.554Z,20.35
2023-05-01T05:33:25.677Z,20.50
2023-05-01T05:36:29.421Z,20.63
2023-05-01T05:39:32.879Z,20.79
2023-05-01T05:42:36.187Z,20.80
2023-05-01T05:45:42.298Z,20.85
2023-05-01T05:48:45.790Z,20.92
2023-05-01T05:51:49.065Z,21.00
2023-05-01T05:54:52.436Z,21.13
2023-05-01T05:57:56.255Z,21.17
2023-05-01T06:00:59.548Z,21.18
2023-05-01T06:04:02.724Z,21.25
2023-05-01T06:07:07.574Z,21.47
2023-05-01T06:10:12.219Z,21.59
2023-05-01T06:13:16.254Z,21.59
2023-05-01T06:16:22.139Z,21.67
2023-05-01T06:19:25.429Z,21.83
2023-05-01T06:22:36.402Z,21.97
2023-05-01T06:25:50.424Z,22.18
2023-05-01T06:28:53.796Z,22.28
2023-05-01T06:31:57.147Z,22.29
2023-05-01T06:35:00.376Z,22.22
2023-05-01T06:38:04.170Z,22.14
2023-05-01T06:41:07.933Z,22.23
2023-05-01T06:44:11.192Z,22.08
2023-05-01T06:47:14.671Z,22.02
2023-05-01T06:50:18.039Z,22.02
2023-05-01T06:53:21.690Z,22.04
2023-05-01T06:56:24.874Z,22.02
2023-05-01T06:59:28.818Z,22.13
2023-05-01T07:02:32.072Z,22.29
2023-05-01T07:05:35.223Z,22.25
2023-05-01T07:08:38.405Z,22.18
2023-05-01T07:11:43.005Z,22.22
2023-05-01T07:14:46.226Z,22.40
2023-05-01T07:17:49.496Z,22.57
2023-05-01T07:20:53.555Z,22.76
2023-05-01T07:23:56.693Z,22.85
2023-05-01T07:27:00.708Z,22.70
2023-05-01T07:30:05.852Z,22.56
2023-05-01T07:33:09.175Z,22.61
2023-05-01T07:36:12.602Z,22.75
2023-05-01T07:39:15.912Z,22.74
2023-05-01T07:42:19.006Z,22.59
2023-05-01T07:45:22.131Z,22.62
2023-05-01T07:48:26.017Z,22.77
2023-05-01T07:51:29.149Z,22.93
2023-05-01T07:54:32.340Z,22.99
2023-05-01T07:57:36.596Z,22.85
2023-05-01T08:00:39.838Z,22.76
2023-05-01T08:03:43.303Z,22.61
2023-05-01T08:06:46.518Z,22.65
2023-05-01T08:09:49.703Z,22.60
2023-05-01T08:12:52.846Z,22.67
2023-05-01T08:15:56.170Z,22.75
2023-05-01T08:19:02.977Z,22.65
2023-05-01T08:22:09.124Z,22.52
2023-05-01T08:25:13.241Z,22.43
2023-05-01T08:28:21.527Z,22.41
2023-05-01T08:31:25.982Z,22.53
2023-05-01T08:34:35.014Z,22.72
2023-05-01T08:37:41.728Z,22.62
2023-05-01T08:40:53.964Z,22.60
2023-05-01T08:44:05.390Z,22.65
2023-05-01T08:47:16.091Z,22.77
2023-05-01T08:50:27.409Z,22.78
2023-05-01T08:53:36.915Z,22.66
2023-05-01T08:56:44.576Z,22.47
2023-05-01T08:59:59.042Z,22.42
2023-05-01T09:03:07.163Z,22.42
2023-05-01T09:06:18.103Z,22.47
2023-05-01T09:09:22.474Z,22.48
2023-05-01T09:12:27.838Z,22.51
2023-05-01T09:15:31.724Z,22.41
2023-05-01T09:18:36.563Z,22.50
2023-05-01T09:21:40.773Z,22.28
2023-05-01T09:24:48.470Z,22.19
2023-05-01T09:27:52.989Z,22.14
2023-05-01T09:30:56.496Z,22.01
2023-05-01T09:34:08.737Z,21.95
2023-05-01T09:37:35.506Z,21.93
2023-05-01T09:40:41.496Z,21.84
2023-05-01T09:43:54.741Z,21.82
2023-05-01T09:47:00.824Z,21.59
2023-05-01T09:50:10.883Z,21.43
2023-05-01T09:53:14.907Z,21.13
2023-05-01T09:56:20.653Z,20.88
2023-05-01T09:59:24.057Z,20.56
2023-05-01T10:02:31.542Z,20.31
2023-05-01T10:05:45.392Z,20.00
2023-05-01T10:08:52.600Z,19.72
2023-05-01T10:11:58.507Z,19.47
2023-05-01T10:15:13.826Z,19.15
2023-05-01T10:18:27.377Z,18.95
2023-05-01T10:21:31.388Z,18.94
2023-05-01T10:24:49.669Z,18.65
2023-05-01T10:27:54.184Z,18.48
2023-05-01T10:30:58.805Z,18.38
2023-05-01T10:34:03.419Z,18.20
2023-05-01T10:37:39.002Z,18.05
2023-05-01T10:40:49.359Z,18.01
2023-05-01T10:44:25.810Z,17.80
2023-05-01T10:47:31.535Z,17.64
2023-05-01T10:50:35.965Z,17.51
2023-05-01T10:53:41.652Z,17.38
2023-05-01T10:56:48.889Z,17.29
2023-05-01T11:00:02.661Z,17.23
2023-05-01T11:03:26.726Z,17.18
2023-05-01T11:06:33.168Z,17.04
2023-05-01T11:09:47.646Z,16.98
2023-05-01T11:12:53.919Z,16.92
2023-05-01T11:16:00.671Z,16.83
2023-05-01T11:19:08.642Z,16.80
2023-05-01T11:22:15.548Z,16.80
2023-05-01T11:25:27.990Z,16.75
2023-05-01T11:28:32.997Z,16.68
2023-05-01T11:31:36.757Z,16.65
2023-05-01T11:34:40.746Z,16.62
2023-05-01T11:37:50.277Z,16.53
2023-05-01T11:40:59.779Z,16.43
2023-05-01T11:44:02.846Z,16.36
2023-05-01T11:47:07.920Z,16.22
2023-05-01T11:50:12.071Z,16.13
2023-05-01T11:53:19.307Z,16.06
2023-05-01T11:56:26.991Z,16.01
2023-05-01T11:59:31.229Z,15.92
2023-05-01T12:02:34.596Z,15.88
2023-05-01T12:05:39.902Z,15.81
2023-05-01T12:08:51.772Z,15.74
2023-05-01T12:11:55.604Z,15.65
2023-05-01T12:14:59.538Z,15.59
2023-05-01T12:18:03.515Z,15.54
2023-05-01T12:21:06.790Z,15.49
2023-05-01T12:24:10.352Z,15.42
2023-05-01T12:27:17.069Z,15.38
2023-05-01T12:30:27.392Z,15.28
2023-05-01T12:33:30.871Z,15.18
2023-05-01T12:36:38.186Z,15.10
2023-05-01T12:39:45.337Z,15.00
2023-05-01T12:42:57.337Z,14.97
2023-05-01T12:46:01.158Z,14.89
2023-05-01T12:49:04.384Z,14.79
2023-05-01T12:52:09.648Z,14.80
2023-05-01T12:55:13.509Z,14.68
2023-05-01T12:58:20.811Z,14.61
2023-05-01T13:01:32.370Z,14.55
2023-05-01T13:04:38.460Z,14.45
2023-05-01T13:07:52.311Z,14.37
2023-05-01T13:10:57.293Z,14.31
2023-05-01T13:14:09.492Z,14.24
2023-05-01T13:17:13.713Z,14.13
2023-05-01T13:20:27.826Z,14.01
2023-05-01T13:23:31.296Z,13.91
2023-05-01T13:26:36.580Z,13.84
2023-05-01T13:29:42.380Z,13.70
2023-05-01T13:32:47.871Z,13.62
2023-05-01T13:35:51.118Z,13.53
2023-05-01T13:38:57.047Z,13.46
2023-05-01T13:42:04.480Z,13.35
2023-05-01T13:45:08.128Z,13.26
2023-05-01T13:48:11.570Z,13.11
2023-05-01T13:51:16.373Z,13.05
2023-05-01T13:54:20.421Z,12.93
2023-05-01T13:57:23.740Z,12.87
2023-05-01T14:00:27.609Z,12.81
2023-05-01T14:03:43.050Z,12.73
2023-05-01T14:06:48.074Z,12.61
2023-05-01T14:09:57.748Z,12.58
2023-05-01T14:13:01.591Z,12.49
2023-05-01T14:16:28.309Z,12.42
2023-05-01T14:19:32.170Z,12.35
2023-05-01T14:22:54.033Z,12.31
2023-05-01T14:25:57.297Z,12.23
2023-05-01T14:29:00.442Z,12.17
2023-05-01T14:32:07.296Z,12.09
2023-05-01T14:35:11.094Z,12.05
2023-05-01T14:38:17.210Z,12.05
2023-05-01T14:41:20.474Z,12.00
2023-05-01T14:44:27.651Z,11.97
2023-05-01T14:47:30.978Z,11.99
2023-05-01T14:50:34.250Z,12.00
2023-05-01T14:53:37.627Z,11.99
2023-05-01T14:56:41.650Z,11.96
2023-05-01T14:59:44.848Z,11.95
2023-05-01T15:02:48.404Z,11.90
2023-05-01T15:05:51.685Z,11.88
2023-05-01T15:08:54.980Z,11.73
2023-05-01T15:11:59.096Z,11.40
2023-05-01T15:15:03.110Z,11.03
2023-05-01T15:18:06.314Z,10.74
2023-05-01T15:21:09.638Z,10.72
2023-05-01T15:24:12.877Z,10.84
2023-05-01T15:27:16.257Z,10.87
2023-05-01T15:30:19.450Z,10.83
2023-05-01T15:33:22.976Z,10.74
2023-05-01T15:36:27.630Z,10.68
2023-05-01T15:39:30.902Z,10.58
2023-05-01T15:42:34.220Z,10.31
2023-05-01T15:45:43.493Z,10.16
2023-05-01T15:48:47.512Z,10.22
2023-05-01T15:51:50.666Z,10.33
2023-05-01T15:54:53.876Z,10.32
2023-05-01T15:57:57.514Z,10.25
2023-05-01T16:01:00.658Z,10.19
2023-05-01T16:04:05.101Z,10.11
2023-05-01T16:07:09.453Z,10.00
2023-05-01T16:10:13.153Z,9.87
2023-05-01T16:13:16.520Z,9.62
2023-05-01T16:16:27.238Z,9.44
2023-05-01T16:19:30.842Z,9.33
2023-05-01T16:22:34.075Z,9.33
2023-05-01T16:25:37.265Z,9.35
2023-05-01T16:28:42.387Z,9.35
2023-05-01T16:31:49.242Z,9.21
2023-05-01T16:34:52.408Z,9.06
2023-05-01T16:37:56.796Z,8.92
2023-05-01T16:40:59.946Z,8.78
2023-05-01T16:44:03.165Z,8.67
2023-05-01T16:47:07.219Z,8.70
2023-05-01T16:50:10.669Z,8.81
2023-05-01T16:53:13.813Z,8.77
2023-05-01T16:56:17.099Z,8.50
2023-05-01T16:59:20.244Z,8.32
2023-05-01T17:02:23.382Z,8.34
2023-05-01T17:05:27.108Z,8.31
2023-05-01T17:08:30.274Z,8.06
2023-05-01T17:11:33.401Z,7.96
2023-05-01T17:14:36.826Z,7.91
2023-05-01T17:17:40.145Z,7.88
2023-05-01T17:20:43.507Z,7.94
2023-05-01T17:23:46.761Z,8.08
2023-05-01T17:26:50.279Z,8.27
2023-05-01T17:29:53.403Z,8.41
2023-05-01T17:32:57.852Z,8.51
2023-05-01T17:36:01.236Z,8.57
2023-05-01T17:39:04.814Z,8.58
2023-05-01T17:42:07.967Z,8.58
2023-05-01T17:45:12.021Z,8.57
2023-05-01T17:48:15.366Z,8.58
2023-05-01T17:51:18.803Z,8.53
2023-05-01T17:54:22.236Z,8.52
2023-05-01T17:57:25.532Z,8.51
2023-05-01T18:00:29.431Z,8.51
2023-05-01T18:03:35.727Z,8.48
2023-05-01T18:06:38.955Z,8.45
2023-05-01T18:09:42.163Z,8.44
2023-05-01T18:12:47.632Z,8.40
2023-05-01T18:15:51.982Z,8.35
2023-05-01T18:18:55.367Z,8.30
2023-05-01T18:22:00.990Z,8.26
2023-05-01T18:25:07.416Z,8.26
2023-05-01T18:28:13.814Z,8.24
2023-05-01T18:31:17.994Z,8.25
2023-05-01T18:34:22.572Z,8.24
2023-05-01T18:37:26.625Z,8.21
2023-05-01T18:40:29.768Z,8.23
2023-05-01T18:43:32.973Z,8.20
2023-05-01T18:46:36.264Z,8.15
2023-05-01T18:49:39.426Z,8.11
2023-05-01T18:52:43.087Z,8.05
2023-05-01T18:55:46.263Z,7.98
2023-05-01T18:58:49.687Z,7.96
2023-05-01T19:01:54.566Z,7.91
2023-05-01T19:04:58.437Z,7.95
2023-05-01T19:08:05.780Z,7.87
2023-05-01T19:11:09.007Z,7.80
2023-05-01T19:14:12.132Z,7.75
2023-05-01T19:17:15.319Z,7.68
2023-05-01T19:20:18.558Z,7.61
2023-05-01T19:23:21.731Z,7.56
2023-05-01T19:26:25.807Z,7.50
2023-05-01T19:29:28.919Z,7.43
2023-05-01T19:32:32.089Z,7.41
2023-05-01T19:35:36.063Z,7.38
2023-05-01T19:38:39.313Z,7.29
2023-05-01T19:41:42.436Z,7.20
2023-05-01T19:44:45.633Z,7.14
2023-05-01T19:47:48.834Z,7.11
2023-05-01T19:50:52.477Z,7.07
2023-05-01T19:53:55.542Z,7.08
2023-05-01T19:56:59.506Z,7.07
2023-05-01T20:00:02.837Z,7.05
2023-05-01T20:03:13.619Z,6.99
2023-05-01T20:06:16.943Z,6.94
2023-05-01T20:09:20.218Z,6.93
2023-05-01T20:12:23.781Z,6.89
2023-05-01T20:15:26.930Z,6.86
2023-05-01T20:18:30.123Z,6.87
2023-05-01T20:21:33.503Z,6.82
2023-05-01T20:24:36.626Z,6.80
2023-05-01T20:27:40.818Z,6.79
2023-05-01T20:30:45.859Z,6.79
2023-05-01T20:33:49.221Z,6.80
2023-05-01T20:36:52.720Z,6.79
2023-05-01T20:39:56.025Z,6.74
2023-05-01T20:43:00.213Z,6.76
2023-05-01T20:46:03.570Z,6.77
2023-05-01T20:49:09.155Z,6.69
2023-05-01T20:52:12.394Z,6.52
2023-05-01T20:55:15.659Z,6.23
2023-05-01T20:58:18.797Z,6.11
2023-05-01T21:01:22.012Z,6.19
2023-05-01T21:04:25.309Z,6.32
2023-05-01T21:07:30.294Z,6.46
2023-05-01T21:10:33.285Z,6.63
2023-05-01T21:13:36.534Z,6.67
2023-05-01T21:16:40.617Z,6.78
2023-05-01T21:19:46.678Z,6.88
2023-05-01T21:22:50.264Z,6.92
2023-05-01T21:25:55.340Z,6.91
2023-05-01T21:28:59.162Z,6.87
2023-05-01T21:32:04.493Z,6.84
2023-05-01T21:35:08.935Z,6.81
2023-05-01T21:38:12.321Z,6.80
2023-05-01T21:41:18.168Z,6.79
2023-05-01T21:44:23.262Z,6.77
2023-05-01T21:47:27.546Z,6.78
2023-05-01T21:50:36.002Z,6.78
2023-05-01T21:53:42.184Z,6.80
2023-05-01T21:56:45.384Z,6.78
2023-05-01T21:59:49.101Z,6.78
2023-05-01T22:02:52.779Z,6.80
2023-05-01T22:05:56.058Z,6.85
2023-05-01T22:08:59.214Z,6.89
2023-05-01T22:12:02.447Z,6.92
2023-05-01T22:15:07.601Z,6.97
2023-05-01T22:18:10.917Z,7.02
2023-05-01T22:21:14.010Z,7.05
2023-05-01T22:24:17.235Z,7.09
2023-05-01T22:27:20.488Z,7.12
2023-05-01T22:30:23.638Z,7.11
2023-05-01T22:33:26.906Z,7.16
2023-05-01T22:36:31.029Z,7.15
2023-05-01T22:39:37.495Z,7.15
2023-05-01T22:42:40.620Z,7.14
2023-05-01T22:45:43.738Z,7.18
2023-05-01T22:48:47.039Z,7.15
2023-05-01T22:51:50.152Z,7.14
2023-05-01T22:54:53.342Z,7.12
2023-05-01T22:57:56.472Z,7.12
2023-05-01T23:00:59.677Z,7.07
2023-05-01T23:04:02.955Z,7.05
2023-05-01T23:07:06.090Z,7.04
2023-05-01T23:10:09.727Z,7.02
2023-05-01T23:13:19.804Z,7.04
2023-05-01T23:16:22.969Z,7.02
2023-05-01T23:19:26.338Z,7.05
2023-05-01T23:22:31.022Z,7.08
2023-05-01T23:25:34.115Z,7.11
2023-05-01T23:28:44.775Z,7.16
2023-05-01T23:31:49.274Z,7.17
2023-05-01T23:34:54.188Z,7.20
2023-05-01T23:37:57.043Z,7.26
2023-05-01T23:41:00.503Z,7.24
2023-05-01T23:44:03.650Z,7.28
2023-05-01T23:47:07.070Z,7.34
2023-05-01T23:50:10.800Z,7.42
2023-05-01T23:53:14.136Z,7.48
2023-05-01T23:56:17.309Z,7.48
2023-05-01T23:59:20.438Z,7.45
